sensor_id;sensor_type;location;lat;lon;timestamp;P1;durP1;ratioP1;P2;durP2;ratioP2
9306;SDS011;4691;47.612;7.610;2022-10-31T00:02:18;44.78;;;22.65;;
9306;SDS011;4691;47.612;7.610;2022-10-31T00:04:43;59.80;;;24.45;;
9306;SDS011;4691;47.612;7.610;2022-10-31T00:07:09;50.00;;;23.00;;
9306;SDS011;4691;47.612;7.610;2022-10-31T00:09:34;48.28;;;21.98;;
9306;SDS011;4691;47.612;7.610;2022-10-31T00:12:00;50.58;;;22.80;;
9306;SDS011;4691;47.612;7.610;2022-10-31T00:14:25;54.10;;;24.33;;
9306;SDS011;4691;47.612;7.610;2022-10-31T00:16:50;52.88;;;24.58;;
9306;SDS011;4691;47.612;7.610;2022-10-31T00:19:15;46.88;;;23.02;;
9306;SDS011;4691;47.612;7.610;2022-10-31T00:21:41;49.95;;;24.55;;
9306;SDS011;4691;47.612;7.610;2022-10-31T00:24:06;48.65;;;22.48;;
9306;SDS011;4691;47.612;7.610;2022-10-31T00:26:32;46.80;;;21.42;;
9306;SDS011;4691;47.612;7.610;2022-10-31T00:28:58;45.72;;;21.25;;
9306;SDS011;4691;47.612;7.610;2022-10-31T00:31:24;53.45;;;23.88;;
9306;SDS011;4691;47.612;7.610;2022-10-31T00:33:49;58.00;;;21.85;;
9306;SDS011;4691;47.612;7.610;2022-10-31T00:36:15;36.95;;;20.33;;
9306;SDS011;4691;47.612;7.610;2022-10-31T00:38:42;47.35;;;24.17;;
9306;SDS011;4691;47.612;7.610;2022-10-31T00:41:09;49.97;;;22.75;;
9306;SDS011;4691;47.612;7.610;2022-10-31T00:43:35;52.55;;;23.00;;
9306;SDS011;4691;47.612;7.610;2022-10-31T00:46:01;47.13;;;21.13;;
9306;SDS011;4691;47.612;7.610;2022-10-31T00:48:26;56.15;;;23.10;;
9306;SDS011;4691;47.612;7.610;2022-10-31T00:50:52;36.95;;;18.30;;
9306;SDS011;4691;47.612;7.610;2022-10-31T00:53:17;47.05;;;21.25;;
9306;SDS011;4691;47.612;7.610;2022-10-31T00:55:42;38.70;;;18.88;;
9306;SDS011;4691;47.612;7.610;2022-10-31T00:58:08;40.65;;;20.48;;
9306;SDS011;4691;47.612;7.610;2022-10-31T01:00:33;48.53;;;19.77;;
9306;SDS011;4691;47.612;7.610;2022-10-31T01:02:58;47.47;;;20.48;;
9306;SDS011;4691;47.612;7.610;2022-10-31T01:05:24;43.53;;;20.52;;
9306;SDS011;4691;47.612;7.610;2022-10-31T01:07:49;47.25;;;22.52;;
9306;SDS011;4691;47.612;7.610;2022-10-31T01:10:14;33.90;;;18.35;;
9306;SDS011;4691;47.612;7.610;2022-10-31T01:12:44;38.17;;;18.38;;
9306;SDS011;4691;47.612;7.610;2022-10-31T01:15:12;44.20;;;19.95;;
9306;SDS011;4691;47.612;7.610;2022-10-31T01:17:39;38.38;;;19.13;;
9306;SDS011;4691;47.612;7.610;2022-10-31T01:20:06;49.85;;;19.95;;
9306;SDS011;4691;47.612;7.610;2022-10-31T01:22:32;39.78;;;19.67;;
9306;SDS011;4691;47.612;7.610;2022-10-31T01:24:58;37.28;;;18.58;;
9306;SDS011;4691;47.612;7.610;2022-10-31T01:27:24;43.97;;;20.38;;
9306;SDS011;4691;47.612;7.610;2022-10-31T01:29:49;41.05;;;20.48;;
9306;SDS011;4691;47.612;7.610;2022-10-31T01:32:14;42.28;;;20.92;;
9306;SDS011;4691;47.612;7.610;2022-10-31T01:34:40;39.53;;;19.58;;
9306;SDS011;4691;47.612;7.610;2022-10-31T01:37:05;46.72;;;19.92;;
9306;SDS011;4691;47.612;7.610;2022-10-31T01:39:30;41.10;;;20.15;;
9306;SDS011;4691;47.612;7.610;2022-10-31T01:41:56;32.78;;;17.70;;
9306;SDS011;4691;47.612;7.610;2022-10-31T01:49:24;36.47;;;16.70;;
9306;SDS011;4691;47.612;7.610;2022-10-31T01:51:53;37.08;;;18.63;;
9306;SDS011;4691;47.612;7.610;2022-10-31T01:54:22;41.95;;;17.25;;
9306;SDS011;4691;47.612;7.610;2022-10-31T01:56:52;53.08;;;20.05;;
9306;SDS011;4691;47.612;7.610;2022-10-31T01:59:20;42.43;;;19.23;;
9306;SDS011;4691;47.612;7.610;2022-10-31T02:01:49;41.60;;;17.67;;
9306;SDS011;4691;47.612;7.610;2022-10-31T02:04:15;34.35;;;18.50;;
9306;SDS011;4691;47.612;7.610;2022-10-31T02:07:17;39.60;;;19.67;;
9306;SDS011;4691;47.612;7.610;2022-10-31T02:09:39;35.83;;;18.88;;
9306;SDS011;4691;47.612;7.610;2022-10-31T02:12:05;38.45;;;20.30;;
9306;SDS011;4691;47.612;7.610;2022-10-31T02:14:33;38.97;;;20.10;;
9306;SDS011;4691;47.612;7.610;2022-10-31T02:17:00;37.75;;;19.65;;
9306;SDS011;4691;47.612;7.610;2022-10-31T02:19:38;33.97;;;18.17;;
9306;SDS011;4691;47.612;7.610;2022-10-31T02:27:47;40.47;;;17.85;;
9306;SDS011;4691;47.612;7.610;2022-10-31T02:30:21;36.60;;;19.08;;
9306;SDS011;4691;47.612;7.610;2022-10-31T02:38:44;37.40;;;17.90;;
9306;SDS011;4691;47.612;7.610;2022-10-31T02:43:53;40.25;;;17.77;;
9306;SDS011;4691;47.612;7.610;2022-10-31T02:46:40;44.50;;;18.58;;
9306;SDS011;4691;47.612;7.610;2022-10-31T02:49:13;31.88;;;16.35;;
9306;SDS011;4691;47.612;7.610;2022-10-31T02:51:49;33.28;;;15.95;;
9306;SDS011;4691;47.612;7.610;2022-10-31T02:54:17;38.80;;;18.58;;
9306;SDS011;4691;47.612;7.610;2022-10-31T02:56:45;33.85;;;17.67;;
9306;SDS011;4691;47.612;7.610;2022-10-31T02:59:11;38.90;;;17.63;;
9306;SDS011;4691;47.612;7.610;2022-10-31T03:01:39;35.13;;;16.23;;
9306;SDS011;4691;47.612;7.610;2022-10-31T03:07:10;32.92;;;15.63;;
9306;SDS011;4691;47.612;7.610;2022-10-31T03:15:30;33.95;;;16.50;;
9306;SDS011;4691;47.612;7.610;2022-10-31T03:19:39;46.55;;;19.55;;
9306;SDS011;4691;47.612;7.610;2022-10-31T03:22:12;41.70;;;20.27;;
9306;SDS011;4691;47.612;7.610;2022-10-31T03:24:42;33.08;;;17.85;;
9306;SDS011;4691;47.612;7.610;2022-10-31T03:27:10;44.03;;;17.83;;
9306;SDS011;4691;47.612;7.610;2022-10-31T03:29:38;36.50;;;17.63;;
9306;SDS011;4691;47.612;7.610;2022-10-31T03:32:08;29.88;;;16.05;;
9306;SDS011;4691;47.612;7.610;2022-10-31T03:34:37;46.72;;;18.83;;
9306;SDS011;4691;47.612;7.610;2022-10-31T03:37:06;40.20;;;18.90;;
9306;SDS011;4691;47.612;7.610;2022-10-31T03:39:34;45.28;;;19.73;;
9306;SDS011;4691;47.612;7.610;2022-10-31T03:42:09;38.63;;;18.42;;
9306;SDS011;4691;47.612;7.610;2022-10-31T03:44:41;41.05;;;17.38;;
9306;SDS011;4691;47.612;7.610;2022-10-31T03:47:09;34.63;;;18.52;;
9306;SDS011;4691;47.612;7.610;2022-10-31T03:49:34;33.70;;;16.90;;
9306;SDS011;4691;47.612;7.610;2022-10-31T03:52:13;46.45;;;19.13;;
9306;SDS011;4691;47.612;7.610;2022-10-31T03:54:43;53.05;;;23.30;;
9306;SDS011;4691;47.612;7.610;2022-10-31T03:57:30;49.35;;;22.45;;
9306;SDS011;4691;47.612;7.610;2022-10-31T04:00:32;43.10;;;20.83;;
9306;SDS011;4691;47.612;7.610;2022-10-31T04:03:01;42.13;;;20.35;;
9306;SDS011;4691;47.612;7.610;2022-10-31T04:05:31;51.67;;;21.30;;
9306;SDS011;4691;47.612;7.610;2022-10-31T04:07:57;42.00;;;19.42;;
9306;SDS011;4691;47.612;7.610;2022-10-31T04:10:24;49.70;;;21.13;;
9306;SDS011;4691;47.612;7.610;2022-10-31T04:12:56;44.63;;;19.00;;
9306;SDS011;4691;47.612;7.610;2022-10-31T04:15:26;50.88;;;20.95;;
9306;SDS011;4691;47.612;7.610;2022-10-31T04:17:55;36.70;;;17.83;;
9306;SDS011;4691;47.612;7.610;2022-10-31T04:20:30;41.13;;;20.38;;
9306;SDS011;4691;47.612;7.610;2022-10-31T04:22:57;34.13;;;18.52;;
9306;SDS011;4691;47.612;7.610;2022-10-31T04:25:22;42.42;;;19.58;;
9306;SDS011;4691;47.612;7.610;2022-10-31T04:27:47;44.08;;;19.50;;
9306;SDS011;4691;47.612;7.610;2022-10-31T04:30:13;35.80;;;19.50;;
9306;SDS011;4691;47.612;7.610;2022-10-31T04:32:38;42.95;;;20.17;;
9306;SDS011;4691;47.612;7.610;2022-10-31T04:35:03;48.05;;;20.58;;
9306;SDS011;4691;47.612;7.610;2022-10-31T04:37:29;42.22;;;18.25;;
9306;SDS011;4691;47.612;7.610;2022-10-31T04:39:54;46.05;;;21.73;;
9306;SDS011;4691;47.612;7.610;2022-10-31T04:42:20;41.92;;;21.70;;
9306;SDS011;4691;47.612;7.610;2022-10-31T04:44:45;48.75;;;21.23;;
9306;SDS011;4691;47.612;7.610;2022-10-31T04:47:10;36.78;;;20.27;;
9306;SDS011;4691;47.612;7.610;2022-10-31T04:49:35;41.08;;;20.15;;
9306;SDS011;4691;47.612;7.610;2022-10-31T04:52:01;41.55;;;20.52;;
9306;SDS011;4691;47.612;7.610;2022-10-31T04:54:26;45.35;;;21.83;;
9306;SDS011;4691;47.612;7.610;2022-10-31T04:56:51;48.00;;;22.63;;
9306;SDS011;4691;47.612;7.610;2022-10-31T04:59:17;49.88;;;22.67;;
9306;SDS011;4691;47.612;7.610;2022-10-31T05:01:42;45.35;;;21.08;;
9306;SDS011;4691;47.612;7.610;2022-10-31T05:04:07;37.58;;;19.40;;
9306;SDS011;4691;47.612;7.610;2022-10-31T05:06:32;43.47;;;22.20;;
9306;SDS011;4691;47.612;7.610;2022-10-31T05:08:58;59.97;;;23.48;;
9306;SDS011;4691;47.612;7.610;2022-10-31T05:11:23;55.17;;;25.35;;
9306;SDS011;4691;47.612;7.610;2022-10-31T05:13:49;43.17;;;22.63;;
9306;SDS011;4691;47.612;7.610;2022-10-31T05:16:14;44.75;;;22.88;;
9306;SDS011;4691;47.612;7.610;2022-10-31T05:18:39;36.20;;;20.13;;
9306;SDS011;4691;47.612;7.610;2022-10-31T05:21:04;43.90;;;21.63;;
9306;SDS011;4691;47.612;7.610;2022-10-31T05:23:30;41.53;;;20.85;;
9306;SDS011;4691;47.612;7.610;2022-10-31T05:25:55;50.38;;;23.60;;
9306;SDS011;4691;47.612;7.610;2022-10-31T05:28:20;42.13;;;22.67;;
9306;SDS011;4691;47.612;7.610;2022-10-31T05:30:46;44.97;;;21.38;;
9306;SDS011;4691;47.612;7.610;2022-10-31T05:33:11;36.28;;;20.20;;
9306;SDS011;4691;47.612;7.610;2022-10-31T05:35:36;38.13;;;20.48;;
9306;SDS011;4691;47.612;7.610;2022-10-31T05:38:01;47.22;;;23.15;;
9306;SDS011;4691;47.612;7.610;2022-10-31T05:40:27;54.22;;;21.65;;
9306;SDS011;4691;47.612;7.610;2022-10-31T05:42:53;49.05;;;21.02;;
9306;SDS011;4691;47.612;7.610;2022-10-31T05:45:21;49.35;;;21.60;;
9306;SDS011;4691;47.612;7.610;2022-10-31T05:47:57;39.15;;;20.17;;
9306;SDS011;4691;47.612;7.610;2022-10-31T05:50:24;42.45;;;20.63;;
9306;SDS011;4691;47.612;7.610;2022-10-31T05:52:54;42.05;;;22.15;;
9306;SDS011;4691;47.612;7.610;2022-10-31T05:55:25;43.22;;;20.17;;
9306;SDS011;4691;47.612;7.610;2022-10-31T05:57:51;42.42;;;21.02;;
9306;SDS011;4691;47.612;7.610;2022-10-31T06:00:18;40.30;;;20.48;;
9306;SDS011;4691;47.612;7.610;2022-10-31T06:02:44;39.20;;;21.58;;
9306;SDS011;4691;47.612;7.610;2022-10-31T06:05:09;41.38;;;22.85;;
9306;SDS011;4691;47.612;7.610;2022-10-31T06:07:34;50.88;;;24.27;;
9306;SDS011;4691;47.612;7.610;2022-10-31T06:10:01;51.40;;;21.90;;
9306;SDS011;4691;47.612;7.610;2022-10-31T06:12:31;42.22;;;21.80;;
9306;SDS011;4691;47.612;7.610;2022-10-31T06:14:56;59.65;;;25.80;;
9306;SDS011;4691;47.612;7.610;2022-10-31T06:17:22;55.97;;;26.95;;
9306;SDS011;4691;47.612;7.610;2022-10-31T06:19:47;55.25;;;24.75;;
9306;SDS011;4691;47.612;7.610;2022-10-31T06:22:12;56.70;;;26.45;;
9306;SDS011;4691;47.612;7.610;2022-10-31T06:24:38;54.90;;;26.02;;
9306;SDS011;4691;47.612;7.610;2022-10-31T06:27:03;45.53;;;23.98;;
9306;SDS011;4691;47.612;7.610;2022-10-31T06:29:29;61.70;;;25.58;;
9306;SDS011;4691;47.612;7.610;2022-10-31T06:31:54;44.45;;;23.15;;
9306;SDS011;4691;47.612;7.610;2022-10-31T06:34:20;45.22;;;21.98;;
9306;SDS011;4691;47.612;7.610;2022-10-31T06:36:45;45.47;;;22.67;;
9306;SDS011;4691;47.612;7.610;2022-10-31T06:39:11;48.35;;;22.52;;
9306;SDS011;4691;47.612;7.610;2022-10-31T06:41:37;40.78;;;21.75;;
9306;SDS011;4691;47.612;7.610;2022-10-31T06:44:04;40.47;;;21.77;;
9306;SDS011;4691;47.612;7.610;2022-10-31T06:46:30;45.33;;;23.25;;
9306;SDS011;4691;47.612;7.610;2022-10-31T06:48:55;47.38;;;21.50;;
9306;SDS011;4691;47.612;7.610;2022-10-31T06:51:21;45.50;;;24.00;;
9306;SDS011;4691;47.612;7.610;2022-10-31T06:53:46;52.00;;;24.45;;
9306;SDS011;4691;47.612;7.610;2022-10-31T06:56:11;40.58;;;21.75;;
9306;SDS011;4691;47.612;7.610;2022-10-31T06:58:37;37.95;;;21.90;;
9306;SDS011;4691;47.612;7.610;2022-10-31T07:01:02;42.67;;;20.65;;
9306;SDS011;4691;47.612;7.610;2022-10-31T07:03:27;38.08;;;20.25;;
9306;SDS011;4691;47.612;7.610;2022-10-31T07:05:54;36.08;;;19.55;;
9306;SDS011;4691;47.612;7.610;2022-10-31T07:08:20;41.03;;;21.27;;
9306;SDS011;4691;47.612;7.610;2022-10-31T07:10:50;41.83;;;21.05;;
9306;SDS011;4691;47.612;7.610;2022-10-31T07:13:17;37.85;;;20.58;;
9306;SDS011;4691;47.612;7.610;2022-10-31T07:15:43;35.95;;;19.80;;
9306;SDS011;4691;47.612;7.610;2022-10-31T07:18:10;39.78;;;20.88;;
9306;SDS011;4691;47.612;7.610;2022-10-31T07:20:36;38.03;;;21.30;;
9306;SDS011;4691;47.612;7.610;2022-10-31T07:23:02;50.15;;;20.92;;
9306;SDS011;4691;47.612;7.610;2022-10-31T07:25:28;44.75;;;23.60;;
9306;SDS011;4691;47.612;7.610;2022-10-31T07:27:54;33.92;;;19.42;;
9306;SDS011;4691;47.612;7.610;2022-10-31T07:30:19;36.65;;;21.73;;
9306;SDS011;4691;47.612;7.610;2022-10-31T07:32:48;34.40;;;18.52;;
9306;SDS011;4691;47.612;7.610;2022-10-31T07:37:41;40.95;;;19.25;;
9306;SDS011;4691;47.612;7.610;2022-10-31T07:40:07;48.92;;;22.77;;
9306;SDS011;4691;47.612;7.610;2022-10-31T07:42:36;38.70;;;22.15;;
9306;SDS011;4691;47.612;7.610;2022-10-31T07:45:07;44.83;;;23.38;;
9306;SDS011;4691;47.612;7.610;2022-10-31T07:48:07;37.28;;;20.90;;
9306;SDS011;4691;47.612;7.610;2022-10-31T07:50:28;44.60;;;22.40;;
9306;SDS011;4691;47.612;7.610;2022-10-31T07:53:02;47.83;;;22.23;;
9306;SDS011;4691;47.612;7.610;2022-10-31T07:55:32;43.28;;;21.42;;
9306;SDS011;4691;47.612;7.610;2022-10-31T08:00:30;46.30;;;20.60;;
9306;SDS011;4691;47.612;7.610;2022-10-31T08:03:00;39.28;;;20.65;;
9306;SDS011;4691;47.612;7.610;2022-10-31T08:05:28;45.10;;;21.48;;
9306;SDS011;4691;47.612;7.610;2022-10-31T08:07:54;52.20;;;21.67;;
9306;SDS011;4691;47.612;7.610;2022-10-31T08:10:19;35.47;;;19.88;;
9306;SDS011;4691;47.612;7.610;2022-10-31T08:12:45;36.90;;;20.33;;
9306;SDS011;4691;47.612;7.610;2022-10-31T08:15:11;32.70;;;18.92;;
9306;SDS011;4691;47.612;7.610;2022-10-31T08:17:37;39.45;;;19.08;;
9306;SDS011;4691;47.612;7.610;2022-10-31T08:20:03;41.72;;;17.83;;
9306;SDS011;4691;47.612;7.610;2022-10-31T08:22:29;39.05;;;18.65;;
9306;SDS011;4691;47.612;7.610;2022-10-31T08:24:55;43.53;;;18.27;;
9306;SDS011;4691;47.612;7.610;2022-10-31T08:27:20;39.03;;;16.70;;
9306;SDS011;4691;47.612;7.610;2022-10-31T08:29:45;37.75;;;16.92;;
9306;SDS011;4691;47.612;7.610;2022-10-31T08:32:11;33.20;;;17.60;;
9306;SDS011;4691;47.612;7.610;2022-10-31T08:34:36;39.55;;;18.90;;
9306;SDS011;4691;47.612;7.610;2022-10-31T08:37:01;39.13;;;19.58;;
9306;SDS011;4691;47.612;7.610;2022-10-31T08:39:27;34.90;;;19.63;;
9306;SDS011;4691;47.612;7.610;2022-10-31T08:41:52;59.80;;;19.92;;
9306;SDS011;4691;47.612;7.610;2022-10-31T08:44:17;36.92;;;18.35;;
9306;SDS011;4691;47.612;7.610;2022-10-31T08:46:43;39.13;;;17.95;;
9306;SDS011;4691;47.612;7.610;2022-10-31T08:49:08;31.77;;;18.50;;
9306;SDS011;4691;47.612;7.610;2022-10-31T08:51:33;37.58;;;19.30;;
9306;SDS011;4691;47.612;7.610;2022-10-31T08:53:59;63.38;;;35.65;;
9306;SDS011;4691;47.612;7.610;2022-10-31T08:56:24;35.60;;;18.05;;
9306;SDS011;4691;47.612;7.610;2022-10-31T08:58:49;34.35;;;17.45;;
9306;SDS011;4691;47.612;7.610;2022-10-31T09:01:16;41.08;;;18.00;;
9306;SDS011;4691;47.612;7.610;2022-10-31T09:03:41;31.23;;;16.00;;
9306;SDS011;4691;47.612;7.610;2022-10-31T09:06:06;34.60;;;17.52;;
9306;SDS011;4691;47.612;7.610;2022-10-31T09:08:33;36.10;;;17.10;;
9306;SDS011;4691;47.612;7.610;2022-10-31T09:10:59;30.55;;;16.25;;
9306;SDS011;4691;47.612;7.610;2022-10-31T09:13:25;27.23;;;16.92;;
9306;SDS011;4691;47.612;7.610;2022-10-31T09:15:51;30.10;;;15.23;;
9306;SDS011;4691;47.612;7.610;2022-10-31T09:18:18;37.45;;;18.30;;
9306;SDS011;4691;47.612;7.610;2022-10-31T09:20:46;36.65;;;18.23;;
9306;SDS011;4691;47.612;7.610;2022-10-31T09:23:13;38.47;;;17.67;;
9306;SDS011;4691;47.612;7.610;2022-10-31T09:25:40;32.55;;;18.02;;
9306;SDS011;4691;47.612;7.610;2022-10-31T09:28:06;32.63;;;17.40;;
9306;SDS011;4691;47.612;7.610;2022-10-31T09:30:34;28.77;;;15.30;;
9306;SDS011;4691;47.612;7.610;2022-10-31T09:33:01;33.00;;;18.00;;
9306;SDS011;4691;47.612;7.610;2022-10-31T09:35:28;37.33;;;16.20;;
9306;SDS011;4691;47.612;7.610;2022-10-31T09:37:57;38.75;;;17.00;;
9306;SDS011;4691;47.612;7.610;2022-10-31T09:40:27;28.13;;;14.82;;
9306;SDS011;4691;47.612;7.610;2022-10-31T09:45:28;39.03;;;16.58;;
9306;SDS011;4691;47.612;7.610;2022-10-31T09:51:08;30.38;;;14.85;;
9306;SDS011;4691;47.612;7.610;2022-10-31T09:53:39;29.00;;;16.00;;
9306;SDS011;4691;47.612;7.610;2022-10-31T09:56:11;42.00;;;18.05;;
9306;SDS011;4691;47.612;7.610;2022-10-31T09:58:40;36.38;;;18.48;;
9306;SDS011;4691;47.612;7.610;2022-10-31T10:06:58;25.20;;;15.02;;
9306;SDS011;4691;47.612;7.610;2022-10-31T10:09:30;36.00;;;16.33;;
9306;SDS011;4691;47.612;7.610;2022-10-31T10:12:03;41.00;;;18.02;;
9306;SDS011;4691;47.612;7.610;2022-10-31T10:14:45;37.03;;;17.00;;
9306;SDS011;4691;47.612;7.610;2022-10-31T10:17:21;30.92;;;15.77;;
9306;SDS011;4691;47.612;7.610;2022-10-31T10:25:38;33.17;;;16.60;;
9306;SDS011;4691;47.612;7.610;2022-10-31T10:28:21;30.63;;;15.27;;
9306;SDS011;4691;47.612;7.610;2022-10-31T10:33:19;30.88;;;13.90;;
9306;SDS011;4691;47.612;7.610;2022-10-31T10:38:27;33.72;;;14.75;;
9306;SDS011;4691;47.612;7.610;2022-10-31T10:40:54;42.10;;;16.90;;
9306;SDS011;4691;47.612;7.610;2022-10-31T10:45:56;26.88;;;14.30;;
9306;SDS011;4691;47.612;7.610;2022-10-31T10:51:40;29.92;;;14.02;;
9306;SDS011;4691;47.612;7.610;2022-10-31T10:59:38;27.17;;;13.65;;
9306;SDS011;4691;47.612;7.610;2022-10-31T11:02:03;28.58;;;12.93;;
9306;SDS011;4691;47.612;7.610;2022-10-31T11:04:40;23.00;;;13.30;;
9306;SDS011;4691;47.612;7.610;2022-10-31T11:07:11;28.67;;;12.90;;
9306;SDS011;4691;47.612;7.610;2022-10-31T11:09:37;24.85;;;12.25;;
9306;SDS011;4691;47.612;7.610;2022-10-31T11:12:10;34.00;;;15.95;;
9306;SDS011;4691;47.612;7.610;2022-10-31T11:14:53;26.88;;;13.52;;
9306;SDS011;4691;47.612;7.610;2022-10-31T11:17:31;27.48;;;13.68;;
9306;SDS011;4691;47.612;7.610;2022-10-31T11:20:02;31.02;;;13.38;;
9306;SDS011;4691;47.612;7.610;2022-10-31T11:22:30;34.38;;;13.95;;
9306;SDS011;4691;47.612;7.610;2022-10-31T11:24:56;24.08;;;11.30;;
9306;SDS011;4691;47.612;7.610;2022-10-31T11:27:23;18.38;;;10.88;;
9306;SDS011;4691;47.612;7.610;2022-10-31T11:29:50;24.00;;;10.27;;
9306;SDS011;4691;47.612;7.610;2022-10-31T11:32:20;21.67;;;10.48;;
9306;SDS011;4691;47.612;7.610;2022-10-31T11:34:48;18.20;;;9.10;;
9306;SDS011;4691;47.612;7.610;2022-10-31T11:37:18;22.65;;;9.52;;
9306;SDS011;4691;47.612;7.610;2022-10-31T11:39:48;24.92;;;10.82;;
9306;SDS011;4691;47.612;7.610;2022-10-31T11:42:19;30.48;;;12.13;;
9306;SDS011;4691;47.612;7.610;2022-10-31T11:44:47;16.65;;;8.40;;
9306;SDS011;4691;47.612;7.610;2022-10-31T11:47:14;17.17;;;8.23;;
9306;SDS011;4691;47.612;7.610;2022-10-31T11:49:41;26.57;;;9.10;;
9306;SDS011;4691;47.612;7.610;2022-10-31T11:55:32;21.85;;;8.20;;
9306;SDS011;4691;47.612;7.610;2022-10-31T11:57:48;20.80;;;9.70;;
9306;SDS011;4691;47.612;7.610;2022-10-31T12:00:26;23.98;;;9.38;;
9306;SDS011;4691;47.612;7.610;2022-10-31T12:05:47;17.27;;;7.22;;
9306;SDS011;4691;47.612;7.610;2022-10-31T12:08:18;17.67;;;7.57;;
9306;SDS011;4691;47.612;7.610;2022-10-31T12:10:59;20.67;;;7.50;;
9306;SDS011;4691;47.612;7.610;2022-10-31T12:13:34;20.10;;;8.23;;
9306;SDS011;4691;47.612;7.610;2022-10-31T12:16:27;20.25;;;7.70;;
9306;SDS011;4691;47.612;7.610;2022-10-31T12:18:59;18.52;;;8.25;;
9306;SDS011;4691;47.612;7.610;2022-10-31T12:21:35;19.30;;;7.38;;
9306;SDS011;4691;47.612;7.610;2022-10-31T12:27:03;22.55;;;9.10;;
9306;SDS011;4691;47.612;7.610;2022-10-31T12:30:00;23.35;;;9.35;;
9306;SDS011;4691;47.612;7.610;2022-10-31T12:35:13;19.33;;;9.18;;
9306;SDS011;4691;47.612;7.610;2022-10-31T12:38:02;24.02;;;9.30;;
9306;SDS011;4691;47.612;7.610;2022-10-31T12:51:08;21.83;;;8.02;;
9306;SDS011;4691;47.612;7.610;2022-10-31T12:54:05;19.80;;;7.10;;
9306;SDS011;4691;47.612;7.610;2022-10-31T12:59:42;13.05;;;6.70;;
9306;SDS011;4691;47.612;7.610;2022-10-31T13:04:44;15.98;;;6.70;;
9306;SDS011;4691;47.612;7.610;2022-10-31T13:07:18;17.00;;;6.85;;
9306;SDS011;4691;47.612;7.610;2022-10-31T13:12:53;19.27;;;6.80;;
9306;SDS011;4691;47.612;7.610;2022-10-31T13:15:24;18.38;;;6.28;;
9306;SDS011;4691;47.612;7.610;2022-10-31T13:17:53;13.85;;;7.03;;
9306;SDS011;4691;47.612;7.610;2022-10-31T13:20:34;19.48;;;7.40;;
9306;SDS011;4691;47.612;7.610;2022-10-31T13:25:58;20.95;;;7.38;;
9306;SDS011;4691;47.612;7.610;2022-10-31T13:28:36;14.10;;;7.07;;
9306;SDS011;4691;47.612;7.610;2022-10-31T13:31:08;13.38;;;6.57;;
9306;SDS011;4691;47.612;7.610;2022-10-31T13:33:35;18.35;;;7.03;;
9306;SDS011;4691;47.612;7.610;2022-10-31T13:38:53;17.67;;;7.78;;
9306;SDS011;4691;47.612;7.610;2022-10-31T13:41:43;21.08;;;7.25;;
9306;SDS011;4691;47.612;7.610;2022-10-31T13:44:15;12.98;;;6.70;;
9306;SDS011;4691;47.612;7.610;2022-10-31T13:46:46;21.45;;;7.38;;
9306;SDS011;4691;47.612;7.610;2022-10-31T13:49:23;20.42;;;7.82;;
9306;SDS011;4691;47.612;7.610;2022-10-31T14:00:24;27.77;;;7.50;;
9306;SDS011;4691;47.612;7.610;2022-10-31T14:02:52;18.38;;;7.03;;
9306;SDS011;4691;47.612;7.610;2022-10-31T14:05:25;17.98;;;7.18;;
9306;SDS011;4691;47.612;7.610;2022-10-31T14:07:59;25.17;;;7.00;;
9306;SDS011;4691;47.612;7.610;2022-10-31T14:13:03;18.15;;;7.10;;
9306;SDS011;4691;47.612;7.610;2022-10-31T14:15:33;21.42;;;7.53;;
9306;SDS011;4691;47.612;7.610;2022-10-31T14:18:01;16.65;;;6.22;;
9306;SDS011;4691;47.612;7.610;2022-10-31T14:20:43;17.52;;;6.22;;
9306;SDS011;4691;47.612;7.610;2022-10-31T14:28:57;18.95;;;6.53;;
9306;SDS011;4691;47.612;7.610;2022-10-31T14:31:37;15.07;;;6.22;;
9306;SDS011;4691;47.612;7.610;2022-10-31T14:34:22;19.98;;;7.13;;
9306;SDS011;4691;47.612;7.610;2022-10-31T14:37:01;16.88;;;7.35;;
9306;SDS011;4691;47.612;7.610;2022-10-31T14:42:00;19.53;;;6.40;;
9306;SDS011;4691;47.612;7.610;2022-10-31T14:50:22;14.32;;;6.30;;
9306;SDS011;4691;47.612;7.610;2022-10-31T14:52:53;16.05;;;5.78;;
9306;SDS011;4691;47.612;7.610;2022-10-31T14:55:21;16.48;;;7.50;;
9306;SDS011;4691;47.612;7.610;2022-10-31T14:57:54;17.92;;;6.88;;
9306;SDS011;4691;47.612;7.610;2022-10-31T15:00:24;18.65;;;6.50;;
9306;SDS011;4691;47.612;7.610;2022-10-31T15:03:05;18.33;;;6.40;;
9306;SDS011;4691;47.612;7.610;2022-10-31T15:05:31;20.92;;;7.13;;
9306;SDS011;4691;47.612;7.610;2022-10-31T15:07:59;20.20;;;7.82;;
9306;SDS011;4691;47.612;7.610;2022-10-31T15:13:17;15.88;;;6.85;;
9306;SDS011;4691;47.612;7.610;2022-10-31T15:15:43;20.85;;;6.40;;
9306;SDS011;4691;47.612;7.610;2022-10-31T15:18:14;20.23;;;7.45;;
9306;SDS011;4691;47.612;7.610;2022-10-31T15:20:42;18.98;;;6.95;;
9306;SDS011;4691;47.612;7.610;2022-10-31T15:23:10;20.48;;;7.88;;
9306;SDS011;4691;47.612;7.610;2022-10-31T15:25:39;23.92;;;8.35;;
9306;SDS011;4691;47.612;7.610;2022-10-31T15:28:15;36.38;;;11.15;;
9306;SDS011;4691;47.612;7.610;2022-10-31T15:30:54;22.27;;;10.70;;
9306;SDS011;4691;47.612;7.610;2022-10-31T15:33:25;26.55;;;10.20;;
9306;SDS011;4691;47.612;7.610;2022-10-31T15:35:58;22.20;;;10.00;;
9306;SDS011;4691;47.612;7.610;2022-10-31T15:38:28;24.90;;;10.18;;
9306;SDS011;4691;47.612;7.610;2022-10-31T15:40:55;22.00;;;10.13;;
9306;SDS011;4691;47.612;7.610;2022-10-31T15:43:24;25.67;;;10.82;;
9306;SDS011;4691;47.612;7.610;2022-10-31T15:45:50;17.70;;;9.63;;
9306;SDS011;4691;47.612;7.610;2022-10-31T15:48:17;33.88;;;11.35;;
9306;SDS011;4691;47.612;7.610;2022-10-31T15:50:51;28.70;;;11.65;;
9306;SDS011;4691;47.612;7.610;2022-10-31T15:53:32;28.48;;;10.20;;
9306;SDS011;4691;47.612;7.610;2022-10-31T15:56:24;24.90;;;10.60;;
9306;SDS011;4691;47.612;7.610;2022-10-31T15:58:52;24.45;;;11.10;;
9306;SDS011;4691;47.612;7.610;2022-10-31T16:01:29;23.00;;;10.63;;
9306;SDS011;4691;47.612;7.610;2022-10-31T16:06:37;29.52;;;11.35;;
9306;SDS011;4691;47.612;7.610;2022-10-31T16:09:03;37.97;;;12.68;;
9306;SDS011;4691;47.612;7.610;2022-10-31T16:11:43;26.98;;;13.23;;
9306;SDS011;4691;47.612;7.610;2022-10-31T16:16:41;35.55;;;16.15;;
9306;SDS011;4691;47.612;7.610;2022-10-31T16:19:28;42.45;;;18.00;;
9306;SDS011;4691;47.612;7.610;2022-10-31T16:22:10;43.40;;;19.02;;
9306;SDS011;4691;47.612;7.610;2022-10-31T16:27:32;32.08;;;14.75;;
9306;SDS011;4691;47.612;7.610;2022-10-31T16:30:00;24.23;;;12.82;;
9306;SDS011;4691;47.612;7.610;2022-10-31T16:32:36;32.50;;;13.48;;
9306;SDS011;4691;47.612;7.610;2022-10-31T16:35:18;29.40;;;13.15;;
9306;SDS011;4691;47.612;7.610;2022-10-31T16:37:50;27.33;;;13.38;;
9306;SDS011;4691;47.612;7.610;2022-10-31T16:40:15;27.52;;;13.20;;
9306;SDS011;4691;47.612;7.610;2022-10-31T16:42:42;25.48;;;12.90;;
9306;SDS011;4691;47.612;7.610;2022-10-31T16:45:20;30.67;;;13.35;;
9306;SDS011;4691;47.612;7.610;2022-10-31T16:47:47;29.45;;;14.32;;
9306;SDS011;4691;47.612;7.610;2022-10-31T16:50:25;37.77;;;15.13;;
9306;SDS011;4691;47.612;7.610;2022-10-31T16:52:52;32.70;;;14.45;;
9306;SDS011;4691;47.612;7.610;2022-10-31T16:55:18;25.55;;;13.73;;
9306;SDS011;4691;47.612;7.610;2022-10-31T16:57:45;40.45;;;19.98;;
9306;SDS011;4691;47.612;7.610;2022-10-31T17:02:41;44.70;;;17.88;;
9306;SDS011;4691;47.612;7.610;2022-10-31T17:05:14;43.65;;;20.15;;
9306;SDS011;4691;47.612;7.610;2022-10-31T17:07:40;38.72;;;18.85;;
9306;SDS011;4691;47.612;7.610;2022-10-31T17:10:07;43.10;;;19.42;;
9306;SDS011;4691;47.612;7.610;2022-10-31T17:12:33;25.05;;;14.13;;
9306;SDS011;4691;47.612;7.610;2022-10-31T17:14:59;34.92;;;14.73;;
9306;SDS011;4691;47.612;7.610;2022-10-31T17:17:25;42.08;;;15.57;;
9306;SDS011;4691;47.612;7.610;2022-10-31T17:19:50;36.58;;;16.55;;
9306;SDS011;4691;47.612;7.610;2022-10-31T17:22:15;32.13;;;15.45;;
9306;SDS011;4691;47.612;7.610;2022-10-31T17:24:41;46.95;;;18.70;;
9306;SDS011;4691;47.612;7.610;2022-10-31T17:27:06;44.42;;;23.05;;